sensor_id;sensor_type;location;lat;lon;timestamp;P1;durP1;ratioP1;P2;durP2;ratioP2
20336;SDS011;10326;53.660;10.200;2022-12-18T00:00:00;16.50;;;13.73;;
20336;SDS011;10326;53.660;10.200;2022-12-18T00:02:27;16.77;;;13.37;;
20336;SDS011;10326;53.660;10.200;2022-12-18T00:04:54;16.23;;;13.47;;
20336;SDS011;10326;53.660;10.200;2022-12-18T00:07:23;15.93;;;13.73;;
20336;SDS011;10326;53.660;10.200;2022-12-18T00:09:50;18.43;;;13.73;;
20336;SDS011;10326;53.660;10.200;2022-12-18T00:12:17;16.67;;;13.23;;
20336;SDS011;10326;53.660;10.200;2022-12-18T00:14:44;17.87;;;14.53;;
20336;SDS011;10326;53.660;10.200;2022-12-18T00:17:12;17.77;;;14.70;;
20336;SDS011;10326;53.660;10.200;2022-12-18T00:19:39;16.30;;;13.93;;
20336;SDS011;10326;53.660;10.200;2022-12-18T00:22:06;17.77;;;14.27;;
20336;SDS011;10326;53.660;10.200;2022-12-18T00:24:35;17.17;;;14.23;;
20336;SDS011;10326;53.660;10.200;2022-12-18T00:27:02;17.83;;;14.63;;
20336;SDS011;10326;53.660;10.200;2022-12-18T00:29:29;16.60;;;14.63;;
20336;SDS011;10326;53.660;10.200;2022-12-18T00:31:57;16.13;;;13.80;;
20336;SDS011;10326;53.660;10.200;2022-12-18T00:34:24;17.17;;;14.27;;
20336;SDS011;10326;53.660;10.200;2022-12-18T00:36:51;16.27;;;14.57;;
20336;SDS011;10326;53.660;10.200;2022-12-18T00:39:20;18.17;;;14.47;;
20336;SDS011;10326;53.660;10.200;2022-12-18T00:41:49;15.77;;;14.17;;
20336;SDS011;10326;53.660;10.200;2022-12-18T00:44:33;16.17;;;13.23;;
20336;SDS011;10326;53.660;10.200;2022-12-18T00:47:00;15.83;;;14.00;;
20336;SDS011;10326;53.660;10.200;2022-12-18T00:49:28;16.60;;;13.60;;
20336;SDS011;10326;53.660;10.200;2022-12-18T00:51:55;16.70;;;13.63;;
20336;SDS011;10326;53.660;10.200;2022-12-18T00:54:22;16.37;;;14.03;;
20336;SDS011;10326;53.660;10.200;2022-12-18T00:56:51;15.93;;;14.17;;
20336;SDS011;10326;53.660;10.200;2022-12-18T00:59:20;17.80;;;14.43;;
20336;SDS011;10326;53.660;10.200;2022-12-18T01:01:49;16.73;;;13.53;;
20336;SDS011;10326;53.660;10.200;2022-12-18T01:04:18;16.27;;;13.43;;
20336;SDS011;10326;53.660;10.200;2022-12-18T01:06:45;17.47;;;12.80;;
20336;SDS011;10326;53.660;10.200;2022-12-18T01:09:13;14.63;;;12.87;;
20336;SDS011;10326;53.660;10.200;2022-12-18T01:11:40;15.17;;;13.10;;
20336;SDS011;10326;53.660;10.200;2022-12-18T01:14:11;15.60;;;12.63;;
20336;SDS011;10326;53.660;10.200;2022-12-18T01:16:38;14.50;;;12.77;;
20336;SDS011;10326;53.660;10.200;2022-12-18T01:19:05;15.93;;;12.80;;
20336;SDS011;10326;53.660;10.200;2022-12-18T01:21:33;16.33;;;12.33;;
20336;SDS011;10326;53.660;10.200;2022-12-18T01:24:03;15.20;;;12.90;;
20336;SDS011;10326;53.660;10.200;2022-12-18T01:26:32;13.47;;;12.07;;
20336;SDS011;10326;53.660;10.200;2022-12-18T01:28:59;15.27;;;11.63;;
20336;SDS011;10326;53.660;10.200;2022-12-18T01:31:30;16.67;;;12.90;;
20336;SDS011;10326;53.660;10.200;2022-12-18T01:34:01;15.47;;;12.60;;
20336;SDS011;10326;53.660;10.200;2022-12-18T01:36:31;14.63;;;12.00;;
20336;SDS011;10326;53.660;10.200;2022-12-18T01:39:01;15.20;;;12.83;;
20336;SDS011;10326;53.660;10.200;2022-12-18T01:41:30;15.73;;;12.17;;
20336;SDS011;10326;53.660;10.200;2022-12-18T01:47:30;13.70;;;11.77;;
20336;SDS011;10326;53.660;10.200;2022-12-18T01:50:04;13.03;;;11.03;;
20336;SDS011;10326;53.660;10.200;2022-12-18T01:52:36;14.43;;;12.03;;
20336;SDS011;10326;53.660;10.200;2022-12-18T01:55:05;14.33;;;12.23;;
20336;SDS011;10326;53.660;10.200;2022-12-18T01:57:34;13.37;;;11.53;;
20336;SDS011;10326;53.660;10.200;2022-12-18T02:00:04;14.57;;;10.97;;
20336;SDS011;10326;53.660;10.200;2022-12-18T02:02:41;14.77;;;11.73;;
20336;SDS011;10326;53.660;10.200;2022-12-18T02:05:12;13.37;;;11.47;;
20336;SDS011;10326;53.660;10.200;2022-12-18T02:07:48;12.20;;;10.30;;
20336;SDS011;10326;53.660;10.200;2022-12-18T02:10:27;12.20;;;10.90;;
20336;SDS011;10326;53.660;10.200;2022-12-18T02:13:00;14.93;;;11.77;;
20336;SDS011;10326;53.660;10.200;2022-12-18T02:15:38;15.30;;;11.60;;
20336;SDS011;10326;53.660;10.200;2022-12-18T02:18:12;13.60;;;11.43;;
20336;SDS011;10326;53.660;10.200;2022-12-18T02:20:44;15.27;;;11.87;;
20336;SDS011;10326;53.660;10.200;2022-12-18T02:23:18;14.43;;;11.33;;
20336;SDS011;10326;53.660;10.200;2022-12-18T02:26:07;12.47;;;10.60;;
20336;SDS011;10326;53.660;10.200;2022-12-18T02:28:44;12.93;;;10.63;;
20336;SDS011;10326;53.660;10.200;2022-12-18T02:31:19;13.80;;;10.80;;
20336;SDS011;10326;53.660;10.200;2022-12-18T02:33:51;12.03;;;10.70;;
20336;SDS011;10326;53.660;10.200;2022-12-18T02:36:23;12.93;;;11.20;;
20336;SDS011;10326;53.660;10.200;2022-12-18T02:38:54;14.03;;;11.87;;
20336;SDS011;10326;53.660;10.200;2022-12-18T02:41:26;11.77;;;10.50;;
20336;SDS011;10326;53.660;10.200;2022-12-18T02:43:55;13.30;;;10.80;;
20336;SDS011;10326;53.660;10.200;2022-12-18T02:46:31;13.90;;;11.20;;
20336;SDS011;10326;53.660;10.200;2022-12-18T02:49:12;14.20;;;11.10;;
20336;SDS011;10326;53.660;10.200;2022-12-18T02:51:52;13.17;;;11.27;;
20336;SDS011;10326;53.660;10.200;2022-12-18T02:54:32;12.83;;;10.83;;
20336;SDS011;10326;53.660;10.200;2022-12-18T02:57:16;12.20;;;10.90;;
20336;SDS011;10326;53.660;10.200;2022-12-18T02:59:54;12.47;;;11.17;;
20336;SDS011;10326;53.660;10.200;2022-12-18T03:02:28;11.40;;;10.20;;
20336;SDS011;10326;53.660;10.200;2022-12-18T03:05:04;12.90;;;11.27;;
20336;SDS011;10326;53.660;10.200;2022-12-18T03:07:40;12.60;;;10.77;;
20336;SDS011;10326;53.660;10.200;2022-12-18T03:10:14;12.57;;;11.23;;
20336;SDS011;10326;53.660;10.200;2022-12-18T03:12:51;11.97;;;10.30;;
20336;SDS011;10326;53.660;10.200;2022-12-18T03:15:24;13.87;;;10.80;;
20336;SDS011;10326;53.660;10.200;2022-12-18T03:18:04;12.10;;;10.60;;
20336;SDS011;10326;53.660;10.200;2022-12-18T03:20:34;13.43;;;10.27;;
20336;SDS011;10326;53.660;10.200;2022-12-18T03:23:04;11.07;;;9.67;;
20336;SDS011;10326;53.660;10.200;2022-12-18T03:25:38;11.17;;;10.00;;
20336;SDS011;10326;53.660;10.200;2022-12-18T03:28:09;11.40;;;10.13;;
20336;SDS011;10326;53.660;10.200;2022-12-18T03:30:41;12.37;;;10.03;;
20336;SDS011;10326;53.660;10.200;2022-12-18T03:33:13;12.23;;;9.93;;
20336;SDS011;10326;53.660;10.200;2022-12-18T03:35:48;11.70;;;10.27;;
20336;SDS011;10326;53.660;10.200;2022-12-18T03:38:17;14.30;;;10.30;;
20336;SDS011;10326;53.660;10.200;2022-12-18T03:40:50;12.27;;;10.37;;
20336;SDS011;10326;53.660;10.200;2022-12-18T03:43:30;12.10;;;10.00;;
20336;SDS011;10326;53.660;10.200;2022-12-18T03:46:11;14.30;;;10.27;;
20336;SDS011;10326;53.660;10.200;2022-12-18T03:48:46;13.33;;;10.27;;
20336;SDS011;10326;53.660;10.200;2022-12-18T03:51:21;13.97;;;10.10;;
20336;SDS011;10326;53.660;10.200;2022-12-18T03:53:54;10.70;;;9.43;;
20336;SDS011;10326;53.660;10.200;2022-12-18T03:56:31;12.20;;;9.77;;
20336;SDS011;10326;53.660;10.200;2022-12-18T03:59:02;11.53;;;9.43;;
20336;SDS011;10326;53.660;10.200;2022-12-18T04:01:33;12.60;;;10.60;;
20336;SDS011;10326;53.660;10.200;2022-12-18T04:04:04;12.10;;;10.03;;
20336;SDS011;10326;53.660;10.200;2022-12-18T04:06:36;12.20;;;9.53;;
20336;SDS011;10326;53.660;10.200;2022-12-18T04:09:06;13.53;;;9.87;;
20336;SDS011;10326;53.660;10.200;2022-12-18T04:11:39;13.73;;;10.77;;
20336;SDS011;10326;53.660;10.200;2022-12-18T04:14:09;13.47;;;10.20;;
20336;SDS011;10326;53.660;10.200;2022-12-18T04:16:37;13.73;;;10.50;;
20336;SDS011;10326;53.660;10.200;2022-12-18T04:19:08;11.83;;;10.20;;
20336;SDS011;10326;53.660;10.200;2022-12-18T04:21:39;12.67;;;10.10;;
20336;SDS011;10326;53.660;10.200;2022-12-18T04:24:08;11.93;;;10.07;;
20336;SDS011;10326;53.660;10.200;2022-12-18T04:26:39;11.20;;;9.90;;
20336;SDS011;10326;53.660;10.200;2022-12-18T04:29:15;12.00;;;9.60;;
20336;SDS011;10326;53.660;10.200;2022-12-18T04:31:43;13.20;;;10.20;;
20336;SDS011;10326;53.660;10.200;2022-12-18T04:34:10;11.70;;;10.13;;
20336;SDS011;10326;53.660;10.200;2022-12-18T04:36:44;13.63;;;10.10;;
20336;SDS011;10326;53.660;10.200;2022-12-18T04:39:12;12.57;;;10.43;;
20336;SDS011;10326;53.660;10.200;2022-12-18T04:41:40;12.73;;;10.70;;
20336;SDS011;10326;53.660;10.200;2022-12-18T04:44:08;12.63;;;10.30;;
20336;SDS011;10326;53.660;10.200;2022-12-18T04:46:38;13.57;;;10.90;;
20336;SDS011;10326;53.660;10.200;2022-12-18T04:49:05;12.53;;;11.07;;
20336;SDS011;10326;53.660;10.200;2022-12-18T04:51:32;12.10;;;10.77;;
20336;SDS011;10326;53.660;10.200;2022-12-18T04:53:59;11.27;;;10.07;;
20336;SDS011;10326;53.660;10.200;2022-12-18T04:56:27;12.13;;;10.60;;
20336;SDS011;10326;53.660;10.200;2022-12-18T04:58:54;13.33;;;10.93;;
20336;SDS011;10326;53.660;10.200;2022-12-18T05:01:21;12.03;;;10.80;;
20336;SDS011;10326;53.660;10.200;2022-12-18T05:03:50;12.23;;;10.93;;
20336;SDS011;10326;53.660;10.200;2022-12-18T05:06:18;12.37;;;10.73;;
20336;SDS011;10326;53.660;10.200;2022-12-18T05:08:45;13.83;;;10.93;;
20336;SDS011;10326;53.660;10.200;2022-12-18T05:11:13;11.80;;;10.60;;
20336;SDS011;10326;53.660;10.200;2022-12-18T05:13:41;12.53;;;10.30;;
20336;SDS011;10326;53.660;10.200;2022-12-18T05:16:09;13.50;;;11.03;;
20336;SDS011;10326;53.660;10.200;2022-12-18T05:18:37;14.37;;;10.57;;
20336;SDS011;10326;53.660;10.200;2022-12-18T05:21:06;12.50;;;11.17;;
20336;SDS011;10326;53.660;10.200;2022-12-18T05:23:33;14.80;;;10.87;;
20336;SDS011;10326;53.660;10.200;2022-12-18T05:26:01;13.07;;;11.23;;
20336;SDS011;10326;53.660;10.200;2022-12-18T05:28:31;13.40;;;11.37;;
20336;SDS011;10326;53.660;10.200;2022-12-18T05:31:01;12.53;;;11.13;;
20336;SDS011;10326;53.660;10.200;2022-12-18T05:33:30;14.20;;;11.33;;
20336;SDS011;10326;53.660;10.200;2022-12-18T05:36:00;12.33;;;11.07;;
20336;SDS011;10326;53.660;10.200;2022-12-18T05:38:30;13.70;;;11.73;;
20336;SDS011;10326;53.660;10.200;2022-12-18T05:40:59;11.50;;;10.37;;
20336;SDS011;10326;53.660;10.200;2022-12-18T05:43:26;13.83;;;11.30;;
20336;SDS011;10326;53.660;10.200;2022-12-18T05:45:54;14.07;;;11.03;;
20336;SDS011;10326;53.660;10.200;2022-12-18T05:48:22;13.57;;;11.47;;
20336;SDS011;10326;53.660;10.200;2022-12-18T05:50:50;13.57;;;10.87;;
20336;SDS011;10326;53.660;10.200;2022-12-18T05:53:18;12.50;;;11.13;;
20336;SDS011;10326;53.660;10.200;2022-12-18T05:55:48;14.33;;;11.13;;
20336;SDS011;10326;53.660;10.200;2022-12-18T05:58:15;12.47;;;11.17;;
20336;SDS011;10326;53.660;10.200;2022-12-18T06:00:43;14.00;;;11.30;;
20336;SDS011;10326;53.660;10.200;2022-12-18T06:03:12;12.90;;;11.33;;
20336;SDS011;10326;53.660;10.200;2022-12-18T06:05:41;13.17;;;11.17;;
20336;SDS011;10326;53.660;10.200;2022-12-18T06:08:11;14.47;;;12.17;;
20336;SDS011;10326;53.660;10.200;2022-12-18T06:10:39;13.63;;;12.23;;
20336;SDS011;10326;53.660;10.200;2022-12-18T06:13:08;13.10;;;11.63;;
20336;SDS011;10326;53.660;10.200;2022-12-18T06:15:35;14.47;;;11.40;;
20336;SDS011;10326;53.660;10.200;2022-12-18T06:18:03;16.77;;;11.97;;
20336;SDS011;10326;53.660;10.200;2022-12-18T06:20:30;14.00;;;11.60;;
20336;SDS011;10326;53.660;10.200;2022-12-18T06:22:57;12.90;;;10.97;;
20336;SDS011;10326;53.660;10.200;2022-12-18T06:25:25;15.83;;;12.43;;
20336;SDS011;10326;53.660;10.200;2022-12-18T06:27:52;12.70;;;11.43;;
20336;SDS011;10326;53.660;10.200;2022-12-18T06:30:20;13.30;;;11.33;;
20336;SDS011;10326;53.660;10.200;2022-12-18T06:32:48;14.60;;;12.27;;
20336;SDS011;10326;53.660;10.200;2022-12-18T06:35:16;15.23;;;11.20;;
20336;SDS011;10326;53.660;10.200;2022-12-18T06:37:44;14.40;;;11.70;;
20336;SDS011;10326;53.660;10.200;2022-12-18T06:40:11;16.53;;;12.27;;
20336;SDS011;10326;53.660;10.200;2022-12-18T06:42:38;13.67;;;11.63;;
20336;SDS011;10326;53.660;10.200;2022-12-18T06:45:05;15.07;;;11.63;;
20336;SDS011;10326;53.660;10.200;2022-12-18T06:47:35;14.00;;;11.87;;
20336;SDS011;10326;53.660;10.200;2022-12-18T06:50:02;13.90;;;12.50;;
20336;SDS011;10326;53.660;10.200;2022-12-18T06:52:31;16.03;;;12.30;;
20336;SDS011;10326;53.660;10.200;2022-12-18T06:54:58;13.97;;;12.40;;
20336;SDS011;10326;53.660;10.200;2022-12-18T06:57:26;13.57;;;11.83;;
20336;SDS011;10326;53.660;10.200;2022-12-18T06:59:53;15.17;;;12.03;;
20336;SDS011;10326;53.660;10.200;2022-12-18T07:02:20;15.70;;;12.87;;
20336;SDS011;10326;53.660;10.200;2022-12-18T07:04:48;14.13;;;12.20;;
20336;SDS011;10326;53.660;10.200;2022-12-18T07:07:15;13.77;;;11.17;;
20336;SDS011;10326;53.660;10.200;2022-12-18T07:09:43;14.67;;;12.47;;
20336;SDS011;10326;53.660;10.200;2022-12-18T07:12:10;15.50;;;12.37;;
20336;SDS011;10326;53.660;10.200;2022-12-18T07:14:37;14.13;;;12.43;;
20336;SDS011;10326;53.660;10.200;2022-12-18T07:17:04;14.13;;;12.57;;
20336;SDS011;10326;53.660;10.200;2022-12-18T07:19:31;14.70;;;12.33;;
20336;SDS011;10326;53.660;10.200;2022-12-18T07:22:00;16.10;;;12.80;;
20336;SDS011;10326;53.660;10.200;2022-12-18T07:24:27;13.13;;;11.17;;
20336;SDS011;10326;53.660;10.200;2022-12-18T07:26:54;15.13;;;11.73;;
20336;SDS011;10326;53.660;10.200;2022-12-18T07:29:21;15.47;;;12.23;;
20336;SDS011;10326;53.660;10.200;2022-12-18T07:31:50;13.70;;;12.17;;
20336;SDS011;10326;53.660;10.200;2022-12-18T07:34:17;15.43;;;12.77;;
20336;SDS011;10326;53.660;10.200;2022-12-18T07:36:45;15.53;;;12.30;;
20336;SDS011;10326;53.660;10.200;2022-12-18T07:39:13;13.53;;;11.90;;
20336;SDS011;10326;53.660;10.200;2022-12-18T07:41:40;15.73;;;12.83;;
20336;SDS011;10326;53.660;10.200;2022-12-18T07:44:11;14.20;;;12.70;;
20336;SDS011;10326;53.660;10.200;2022-12-18T07:46:39;14.00;;;12.50;;
20336;SDS011;10326;53.660;10.200;2022-12-18T07:49:07;14.90;;;12.27;;
20336;SDS011;10326;53.660;10.200;2022-12-18T07:51:34;14.93;;;12.03;;
20336;SDS011;10326;53.660;10.200;2022-12-18T07:54:01;14.20;;;12.67;;
20336;SDS011;10326;53.660;10.200;2022-12-18T07:56:31;14.83;;;12.07;;
20336;SDS011;10326;53.660;10.200;2022-12-18T07:58:58;16.23;;;12.10;;
20336;SDS011;10326;53.660;10.200;2022-12-18T08:01:29;15.53;;;12.47;;
20336;SDS011;10326;53.660;10.200;2022-12-18T08:03:56;16.00;;;12.00;;
20336;SDS011;10326;53.660;10.200;2022-12-18T08:06:24;14.53;;;12.43;;
20336;SDS011;10326;53.660;10.200;2022-12-18T08:08:52;18.50;;;13.40;;
20336;SDS011;10326;53.660;10.200;2022-12-18T08:11:20;14.90;;;12.70;;
20336;SDS011;10326;53.660;10.200;2022-12-18T08:13:49;14.67;;;11.43;;
20336;SDS011;10326;53.660;10.200;2022-12-18T08:16:16;16.67;;;12.23;;
20336;SDS011;10326;53.660;10.200;2022-12-18T08:18:44;15.83;;;12.30;;
20336;SDS011;10326;53.660;10.200;2022-12-18T08:21:12;15.67;;;12.43;;
20336;SDS011;10326;53.660;10.200;2022-12-18T08:23:42;14.37;;;12.20;;
20336;SDS011;10326;53.660;10.200;2022-12-18T08:26:10;14.60;;;12.10;;
20336;SDS011;10326;53.660;10.200;2022-12-18T08:28:38;13.93;;;12.33;;
20336;SDS011;10326;53.660;10.200;2022-12-18T08:31:09;13.40;;;11.93;;
20336;SDS011;10326;53.660;10.200;2022-12-18T08:33:37;15.70;;;12.37;;
20336;SDS011;10326;53.660;10.200;2022-12-18T08:36:05;14.93;;;12.00;;
20336;SDS011;10326;53.660;10.200;2022-12-18T08:38:33;15.47;;;12.43;;
20336;SDS011;10326;53.660;10.200;2022-12-18T08:41:00;13.47;;;11.83;;
20336;SDS011;10326;53.660;10.200;2022-12-18T08:43:30;15.20;;;11.90;;
20336;SDS011;10326;53.660;10.200;2022-12-18T08:46:16;15.23;;;12.43;;
20336;SDS011;10326;53.660;10.200;2022-12-18T08:48:44;15.03;;;12.20;;
20336;SDS011;10326;53.660;10.200;2022-12-18T08:51:12;16.43;;;12.63;;
20336;SDS011;10326;53.660;10.200;2022-12-18T08:53:40;14.50;;;12.73;;
20336;SDS011;10326;53.660;10.200;2022-12-18T08:56:09;15.03;;;12.47;;
20336;SDS011;10326;53.660;10.200;2022-12-18T08:58:37;16.83;;;13.67;;
20336;SDS011;10326;53.660;10.200;2022-12-18T09:01:05;16.23;;;12.87;;
20336;SDS011;10326;53.660;10.200;2022-12-18T09:03:36;15.73;;;13.03;;
20336;SDS011;10326;53.660;10.200;2022-12-18T09:06:04;15.33;;;12.57;;
20336;SDS011;10326;53.660;10.200;2022-12-18T09:08:32;14.80;;;12.63;;
20336;SDS011;10326;53.660;10.200;2022-12-18T09:11:01;14.90;;;12.73;;
20336;SDS011;10326;53.660;10.200;2022-12-18T09:13:29;17.33;;;12.83;;
20336;SDS011;10326;53.660;10.200;2022-12-18T09:15:56;15.17;;;12.80;;
20336;SDS011;10326;53.660;10.200;2022-12-18T09:18:24;15.80;;;12.33;;
20336;SDS011;10326;53.660;10.200;2022-12-18T09:20:53;15.37;;;12.67;;
20336;SDS011;10326;53.660;10.200;2022-12-18T09:23:20;18.60;;;13.07;;
20336;SDS011;10326;53.660;10.200;2022-12-18T09:25:47;15.67;;;12.67;;
20336;SDS011;10326;53.660;10.200;2022-12-18T09:28:15;15.80;;;13.00;;
20336;SDS011;10326;53.660;10.200;2022-12-18T09:30:45;16.43;;;13.13;;
20336;SDS011;10326;53.660;10.200;2022-12-18T09:33:14;16.33;;;13.40;;
20336;SDS011;10326;53.660;10.200;2022-12-18T09:35:43;16.63;;;12.30;;
20336;SDS011;10326;53.660;10.200;2022-12-18T09:38:13;15.67;;;12.20;;
20336;SDS011;10326;53.660;10.200;2022-12-18T09:40:44;15.43;;;12.57;;
20336;SDS011;10326;53.660;10.200;2022-12-18T09:43:14;16.13;;;13.17;;
20336;SDS011;10326;53.660;10.200;2022-12-18T09:45:46;15.43;;;11.93;;
20336;SDS011;10326;53.660;10.200;2022-12-18T09:48:18;16.17;;;12.70;;
20336;SDS011;10326;53.660;10.200;2022-12-18T09:50:50;16.90;;;12.70;;
20336;SDS011;10326;53.660;10.200;2022-12-18T09:53:20;15.03;;;11.80;;
20336;SDS011;10326;53.660;10.200;2022-12-18T09:55:52;14.57;;;12.37;;
20336;SDS011;10326;53.660;10.200;2022-12-18T09:58:22;17.37;;;13.17;;
20336;SDS011;10326;53.660;10.200;2022-12-18T10:00:55;15.90;;;12.53;;
20336;SDS011;10326;53.660;10.200;2022-12-18T10:03:23;14.27;;;11.93;;
20336;SDS011;10326;53.660;10.200;2022-12-18T10:05:53;16.30;;;12.47;;
20336;SDS011;10326;53.660;10.200;2022-12-18T10:08:32;14.37;;;12.37;;
20336;SDS011;10326;53.660;10.200;2022-12-18T10:11:15;14.20;;;11.43;;
20336;SDS011;10326;53.660;10.200;2022-12-18T10:14:00;13.23;;;11.73;;
20336;SDS011;10326;53.660;10.200;2022-12-18T10:16:37;15.90;;;12.07;;
20336;SDS011;10326;53.660;10.200;2022-12-18T10:19:23;14.50;;;11.73;;
20336;SDS011;10326;53.660;10.200;2022-12-18T10:22:04;14.27;;;11.40;;
20336;SDS011;10326;53.660;10.200;2022-12-18T10:24:44;16.50;;;12.27;;
20336;SDS011;10326;53.660;10.200;2022-12-18T10:27:22;14.57;;;11.17;;
20336;SDS011;10326;53.660;10.200;2022-12-18T10:29:52;13.80;;;11.33;;
20336;SDS011;10326;53.660;10.200;2022-12-18T10:32:20;14.83;;;12.10;;
20336;SDS011;10326;53.660;10.200;2022-12-18T10:34:50;15.50;;;12.20;;
20336;SDS011;10326;53.660;10.200;2022-12-18T10:37:20;14.67;;;10.93;;
20336;SDS011;10326;53.660;10.200;2022-12-18T10:40:04;13.93;;;11.07;;
20336;SDS011;10326;53.660;10.200;2022-12-18T10:42:37;14.33;;;11.67;;
20336;SDS011;10326;53.660;10.200;2022-12-18T10:45:08;13.47;;;11.07;;
20336;SDS011;10326;53.660;10.200;2022-12-18T10:47:41;13.30;;;11.30;;
20336;SDS011;10326;53.660;10.200;2022-12-18T10:50:18;13.70;;;11.30;;
20336;SDS011;10326;53.660;10.200;2022-12-18T10:52:55;14.17;;;11.63;;
20336;SDS011;10326;53.660;10.200;2022-12-18T10:55:27;14.13;;;11.30;;
20336;SDS011;10326;53.660;10.200;2022-12-18T10:58:13;13.87;;;11.47;;
20336;SDS011;10326;53.660;10.200;2022-12-18T11:00:45;14.47;;;11.57;;
20336;SDS011;10326;53.660;10.200;2022-12-18T11:03:34;14.17;;;10.97;;
20336;SDS011;10326;53.660;10.200;2022-12-18T11:06:05;15.47;;;11.43;;
20336;SDS011;10326;53.660;10.200;2022-12-18T11:08:35;13.93;;;11.07;;
20336;SDS011;10326;53.660;10.200;2022-12-18T11:11:07;13.57;;;10.73;;
20336;SDS011;10326;53.660;10.200;2022-12-18T11:13:51;15.20;;;12.10;;
20336;SDS011;10326;53.660;10.200;2022-12-18T11:16:28;16.23;;;11.53;;
20336;SDS011;10326;53.660;10.200;2022-12-18T11:19:20;13.80;;;11.13;;
20336;SDS011;10326;53.660;10.200;2022-12-18T11:21:56;13.93;;;10.97;;
20336;SDS011;10326;53.660;10.200;2022-12-18T11:24:26;13.90;;;11.53;;
20336;SDS011;10326;53.660;10.200;2022-12-18T11:26:59;15.53;;;11.33;;
20336;SDS011;10326;53.660;10.200;2022-12-18T11:29:33;13.57;;;10.83;;
20336;SDS011;10326;53.660;10.200;2022-12-18T11:35:03;14.50;;;11.37;;
20336;SDS011;10326;53.660;10.200;2022-12-18T11:37:39;14.10;;;11.60;;
20336;SDS011;10326;53.660;10.200;2022-12-18T11:40:10;15.47;;;12.43;;
20336;SDS011;10326;53.660;10.200;2022-12-18T11:42:45;17.00;;;11.63;;
20336;SDS011;10326;53.660;10.200;2022-12-18T11:45:28;13.27;;;10.83;;
20336;SDS011;10326;53.660;10.200;2022-12-18T11:47:59;15.40;;;12.10;;
20336;SDS011;10326;53.660;10.200;2022-12-18T11:50:33;14.73;;;11.37;;
20336;SDS011;10326;53.660;10.200;2022-12-18T11:53:10;13.97;;;11.53;;
20336;SDS011;10326;53.660;10.200;2022-12-18T11:55:39;16.77;;;11.57;;
20336;SDS011;10326;53.660;10.200;2022-12-18T11:58:19;14.60;;;11.47;;
20336;SDS011;10326;53.660;10.200;2022-12-18T12:01:06;15.20;;;11.43;;
20336;SDS011;10326;53.660;10.200;2022-12-18T12:03:50;13.83;;;11.10;;
20336;SDS011;10326;53.660;10.200;2022-12-18T12:06:58;15.73;;;11.00;;
20336;SDS011;10326;53.660;10.200;2022-12-18T12:09:38;16.07;;;11.37;;
20336;SDS011;10326;53.660;10.200;2022-12-18T12:12:19;13.30;;;10.87;;
20336;SDS011;10326;53.660;10.200;2022-12-18T12:15:16;13.87;;;11.37;;
20336;SDS011;10326;53.660;10.200;2022-12-18T12:17:53;13.53;;;11.53;;
20336;SDS011;10326;53.660;10.200;2022-12-18T12:20:29;15.23;;;11.23;;
20336;SDS011;10326;53.660;10.200;2022-12-18T12:23:12;15.57;;;11.80;;
20336;SDS011;10326;53.660;10.200;2022-12-18T12:25:50;14.00;;;11.07;;
20336;SDS011;10326;53.660;10.200;2022-12-18T12:28:27;15.33;;;11.67;;
20336;SDS011;10326;53.660;10.200;2022-12-18T12:31:23;15.93;;;11.90;;
20336;SDS011;10326;53.660;10.200;2022-12-18T12:34:05;13.60;;;10.63;;
20336;SDS011;10326;53.660;10.200;2022-12-18T12:36:45;14.90;;;11.10;;
20336;SDS011;10326;53.660;10.200;2022-12-18T12:39:28;12.70;;;10.53;;
20336;SDS011;10326;53.660;10.200;2022-12-18T12:42:01;15.90;;;11.33;;
20336;SDS011;10326;53.660;10.200;2022-12-18T12:44:48;15.23;;;11.23;;
20336;SDS011;10326;53.660;10.200;2022-12-18T12:47:30;14.23;;;11.50;;
20336;SDS011;10326;53.660;10.200;2022-12-18T12:50:03;14.13;;;11.77;;
20336;SDS011;10326;53.660;10.200;2022-12-18T12:52:39;16.03;;;12.03;;
20336;SDS011;10326;53.660;10.200;2022-12-18T12:55:13;16.00;;;12.50;;
20336;SDS011;10326;53.660;10.200;2022-12-18T12:57:45;16.60;;;12.77;;
20336;SDS011;10326;53.660;10.200;2022-12-18T13:00:18;18.77;;;12.67;;
20336;SDS011;10326;53.660;10.200;2022-12-18T13:02:49;17.57;;;13.40;;
20336;SDS011;10326;53.660;10.200;2022-12-18T13:05:23;19.60;;;13.40;;
20336;SDS011;10326;53.660;10.200;2022-12-18T13:07:58;20.67;;;13.73;;
20336;SDS011;10326;53.660;10.200;2022-12-18T13:10:32;22.10;;;14.67;;
20336;SDS011;10326;53.660;10.200;2022-12-18T13:13:02;22.17;;;15.43;;
20336;SDS011;10326;53.660;10.200;2022-12-18T13:15:33;20.77;;;15.40;;
20336;SDS011;10326;53.660;10.200;2022-12-18T13:18:18;22.13;;;15.13;;
20336;SDS011;10326;53.660;10.200;2022-12-18T13:20:48;22.60;;;15.20;;
20336;SDS011;10326;53.660;10.200;2022-12-18T13:28:58;21.23;;;15.43;;
20336;SDS011;10326;53.660;10.200;2022-12-18T13:34:46;21.20;;;14.90;;
20336;SDS011;10326;53.660;10.200;2022-12-18T13:43:27;21.93;;;14.90;;
20336;SDS011;10326;53.660;10.200;2022-12-18T13:46:03;20.33;;;13.67;;
20336;SDS011;10326;53.660;10.200;2022-12-18T13:48:49;23.53;;;15.13;;
20336;SDS011;10326;53.660;10.200;2022-12-18T13:51:25;22.63;;;14.40;;
20336;SDS011;10326;53.660;10.200;2022-12-18T13:53:54;18.90;;;13.60;;
20336;SDS011;10326;53.660;10.200;2022-12-18T13:56:25;22.20;;;14.87;;
20336;SDS011;10326;53.660;10.200;2022-12-18T13:59:03;23.30;;;14.90;;
20336;SDS011;10326;53.660;10.200;2022-12-18T14:01:44;19.70;;;13.67;;
20336;SDS011;10326;53.660;10.200;2022-12-18T14:04:21;20.20;;;13.47;;
20336;SDS011;10326;53.660;10.200;2022-12-18T14:06:54;23.47;;;14.40;;
20336;SDS011;10326;53.660;10.200;2022-12-18T14:09:25;21.80;;;14.83;;
20336;SDS011;10326;53.660;10.200;2022-12-18T14:11:55;21.97;;;15.03;;
20336;SDS011;10326;53.660;10.200;2022-12-18T14:14:37;25.83;;;14.73;;
20336;SDS011;10326;53.660;10.200;2022-12-18T14:17:11;23.03;;;14.67;;
20336;SDS011;10326;53.660;10.200;2022-12-18T14:19:41;21.53;;;13.43;;
20336;SDS011;10326;53.660;10.200;2022-12-18T14:22:14;21.73;;;15.33;;
20336;SDS011;10326;53.660;10.200;2022-12-18T14:24:44;23.97;;;14.80;;
20336;SDS011;10326;53.660;10.200;2022-12-18T14:27:12;22.67;;;14.77;;
20336;SDS011;10326;53.660;10.200;2022-12-18T14:29:47;22.57;;;14.20;;
20336;SDS011;10326;53.660;10.200;2022-12-18T14:32:15;23.60;;;15.23;;
20336;SDS011;10326;53.660;10.200;2022-12-18T14:34:45;22.63;;;14.63;;
20336;SDS011;10326;53.660;10.200;2022-12-18T14:37:16;22.87;;;15.57;;
20336;SDS011;10326;53.660;10.200;2022-12-18T14:39:54;24.70;;;15.87;;
20336;SDS011;10326;53.660;10.200;2022-12-18T14:42:24;22.20;;;15.13;;
20336;SDS011;10326;53.660;10.200;2022-12-18T14:48:05;25.73;;;15.47;;
20336;SDS011;10326;53.660;10.200;2022-12-18T14:50:34;24.27;;;15.10;;
20336;SDS011;10326;53.660;10.200;2022-12-18T14:53:03;24.27;;;16.20;;
20336;SDS011;10326;53.660;10.200;2022-12-18T14:55:33;26.33;;;16.60;;
20336;SDS011;10326;53.660;10.200;2022-12-18T14:58:01;25.30;;;16.40;;